Time;durP1;ratioP1;P1;durP2;ratioP2;P2;SDS_P1;SDS_P2;PMS_P1;PMS_P2;Temp;Humidity;BMP_temperature;BMP_pressure;BME280_temperature;BME280_humidity;BME280_pressure;Samples;Min_cycle;Max_cycle;Signal;HPM_P1;HPM_P2
2023/06/11 00:01:45;;;;;;;6.20;4.40;;;;;;;19.89;73.60;100433.39;109673;1241;59658;-68
2023/06/11 00:04:26;;;;;;;5.10;4.40;;;;;;;19.89;73.59;100431.84;109669;1241;62419;-71
2023/06/11 00:06:56;;;;;;;6.90;4.30;;;;;;;19.79;74.36;100431.17;109616;1243;57655;-70
2023/06/11 00:09:26;;;;;;;6.60;4.10;;;;;;;19.75;74.67;100430.01;109560;1241;57051;-70
2023/06/11 00:11:55;;;;;;;7.80;4.70;;;;;;;19.74;74.90;100427.86;109374;1241;64010;-69
2023/06/11 00:14:24;;;;;;;6.30;4.40;;;;;;;19.70;75.49;100430.41;109522;1241;72102;-69
2023/06/11 00:16:53;;;;;;;8.00;4.60;;;;;;;19.71;75.58;100428.79;109484;1245;70839;-70
2023/06/11 00:19:21;;;;;;;6.80;4.50;;;;;;;19.72;74.99;100434.11;109394;1241;73676;-70
2023/06/11 00:21:50;;;;;;;8.40;4.80;;;;;;;19.68;75.71;100439.90;109637;1244;57498;-70
2023/06/11 00:24:19;;;;;;;5.50;4.30;;;;;;;19.68;75.55;100443.91;109591;1241;57625;-70
2023/06/11 00:26:48;;;;;;;7.90;4.30;;;;;;;19.69;75.48;100448.05;109677;1241;62145;-70
2023/06/11 00:29:17;;;;;;;7.00;4.90;;;;;;;19.66;76.10;100452.54;109688;1244;72394;-71
2023/06/11 00:31:46;;;;;;;7.40;5.00;;;;;;;19.62;76.71;100453.68;109706;1241;60356;-70
2023/06/11 00:34:16;;;;;;;10.70;4.70;;;;;;;19.66;76.30;100461.03;109634;1244;73772;-70
2023/06/11 00:36:45;;;;;;;6.70;4.10;;;;;;;19.68;76.96;100463.27;109498;1244;57780;-70
2023/06/11 00:39:14;;;;;;;4.80;3.80;;;;;;;19.70;77.55;100464.61;109546;1241;57726;-72
2023/06/11 00:41:45;;;;;;;6.00;4.40;;;;;;;19.62;79.13;100466.36;109476;1241;62969;-70
2023/06/11 00:44:21;;;;;;;6.40;4.60;;;;;;;19.41;79.69;100468.59;109573;1241;61542;-70
2023/06/11 00:46:53;;;;;;;7.10;4.70;;;;;;;19.32;79.62;100467.98;109366;1241;59875;-70
2023/06/11 00:49:23;;;;;;;7.60;4.60;;;;;;;19.34;79.51;100464.91;109416;1241;73963;-70
2023/06/11 00:51:52;;;;;;;12.50;4.30;;;;;;;19.30;80.35;100469.20;109347;1245;57690;-70
2023/06/11 00:54:21;;;;;;;8.00;5.60;;;;;;;19.33;80.04;100469.66;109457;1241;57675;-71
2023/06/11 00:56:51;;;;;;;6.10;4.50;;;;;;;19.28;80.22;100466.14;109317;1241;63619;-70
2023/06/11 00:59:20;;;;;;;5.60;4.60;;;;;;;19.24;81.07;100466.25;109500;1241;72182;-70
2023/06/11 01:02:09;;;;;;;9.20;5.10;;;;;;;19.23;81.25;100470.29;109374;1243;60274;-70
2023/06/11 01:04:41;;;;;;;9.00;5.00;;;;;;;19.18;80.87;100469.00;109265;1246;63351;-70
2023/06/11 01:07:15;;;;;;;7.00;4.50;;;;;;;19.16;80.72;100470.30;109259;1245;57718;-71
2023/06/11 01:09:45;;;;;;;9.70;5.70;;;;;;;19.21;81.14;100471.34;109327;1244;60079;-70
2023/06/11 01:12:14;;;;;;;8.70;5.40;;;;;;;19.20;81.78;100472.34;109462;1244;64291;-70
2023/06/11 01:14:43;;;;;;;7.00;5.30;;;;;;;19.18;82.26;100473.77;109294;1243;60888;-70
2023/06/11 01:17:15;;;;;;;7.00;5.10;;;;;;;19.14;81.70;100474.32;109271;1243;68136;-71
2023/06/11 01:20:25;;;;;;;7.90;4.90;;;;;;;19.10;82.01;100473.63;109255;1244;74498;-70
2023/06/11 01:23:33;;;;;;;8.50;5.60;;;;;;;19.06;81.95;100473.68;109307;1245;57364;-70
2023/06/11 01:26:38;;;;;;;9.70;5.50;;;;;;;19.02;81.87;100474.04;109333;1244;61856;-71
2023/06/11 01:29:09;;;;;;;8.20;5.70;;;;;;;18.98;82.73;100477.21;109433;1244;73983;-71
2023/06/11 01:31:42;;;;;;;7.90;5.00;;;;;;;18.99;82.82;100482.98;109197;1243;61551;-71
2023/06/11 01:34:13;;;;;;;7.10;5.30;;;;;;;18.97;82.91;100487.28;109294;1243;69655;-71
2023/06/11 01:36:43;;;;;;;6.90;5.10;;;;;;;18.94;83.72;100486.41;109290;1245;73432;-71
2023/06/11 01:39:12;;;;;;;10.50;5.50;;;;;;;18.94;84.01;100485.02;109322;1246;57770;-71
2023/06/11 01:41:47;;;;;;;8.40;5.00;;;;;;;18.93;84.09;100481.88;109309;1243;57768;-71
2023/06/11 01:44:19;;;;;;;6.20;5.10;;;;;;;18.91;84.19;100477.52;109329;1244;62965;-71
2023/06/11 01:46:48;;;;;;;7.60;6.10;;;;;;;18.86;85.05;100479.05;109351;1243;61834;-71
2023/06/11 01:49:18;;;;;;;7.10;5.70;;;;;;;18.79;85.36;100478.50;109461;1243;69976;-72
2023/06/11 01:51:47;;;;;;;9.60;5.90;;;;;;;18.83;85.58;100486.55;109246;1244;74125;-71
2023/06/11 01:54:15;;;;;;;8.30;5.80;;;;;;;18.78;85.60;100489.95;109425;1244;62800;-71
2023/06/11 01:56:44;;;;;;;7.40;5.60;;;;;;;18.74;85.36;100488.95;109363;1243;57774;-72
2023/06/11 01:59:17;;;;;;;7.70;5.70;;;;;;;18.72;85.83;100490.23;109468;1244;73474;-72
2023/06/11 02:01:52;;;;;;;11.20;6.10;;;;;;;18.69;86.75;100489.80;109591;1243;72559;-73
2023/06/11 02:04:25;;;;;;;10.10;6.40;;;;;;;18.68;86.70;100489.75;109415;1246;59708;-70
2023/06/11 02:06:54;;;;;;;7.10;4.80;;;;;;;18.71;86.36;100488.05;109596;1244;73814;-70
2023/06/11 02:09:22;;;;;;;9.90;6.00;;;;;;;18.74;86.47;100489.67;109484;1245;63396;-70
2023/06/11 02:11:51;;;;;;;7.60;6.00;;;;;;;18.71;86.35;100496.52;109603;1245;57918;-70
2023/06/11 02:14:21;;;;;;;8.10;5.90;;;;;;;18.69;85.93;100500.46;109440;1246;62973;-70
2023/06/11 02:16:50;;;;;;;7.60;6.10;;;;;;;18.68;86.33;100504.63;109615;1245;60846;-70
2023/06/11 02:19:19;;;;;;;8.50;6.10;;;;;;;18.63;86.20;100503.52;109482;1244;59976;-71
2023/06/11 02:21:48;;;;;;;8.80;6.10;;;;;;;18.61;85.77;100505.25;109590;1244;62497;-70
2023/06/11 02:24:17;;;;;;;6.40;5.70;;;;;;;18.59;86.70;100506.98;109525;1244;61980;-71
2023/06/11 02:26:45;;;;;;;7.90;5.40;;;;;;;18.59;87.62;100506.09;109330;1244;62237;-71
2023/06/11 02:29:15;;;;;;;8.50;6.10;;;;;;;18.53;88.23;100506.17;109341;1244;73059;-71
2023/06/11 02:31:44;;;;;;;8.40;6.70;;;;;;;18.46;88.93;100505.71;109300;1244;72539;-71
2023/06/11 02:34:13;;;;;;;8.30;6.30;;;;;;;18.42;88.97;100508.84;109453;1243;71194;-70
2023/06/11 02:36:41;;;;;;;7.80;5.90;;;;;;;18.36;89.12;100515.85;109463;1244;75150;-71
2023/06/11 02:39:10;;;;;;;7.70;6.20;;;;;;;18.33;89.69;100514.08;109442;1246;63657;-70
2023/06/11 02:41:39;;;;;;;10.80;6.30;;;;;;;18.29;90.19;100515.05;109468;1243;57173;-70
2023/06/11 02:44:08;;;;;;;9.40;6.50;;;;;;;18.25;90.97;100518.55;109447;1246;62177;-70
2023/06/11 02:46:37;;;;;;;7.90;6.20;;;;;;;18.24;91.44;100519.41;109432;1245;61625;-70
2023/06/11 02:49:06;;;;;;;9.60;6.90;;;;;;;18.22;92.31;100523.01;109455;1245;70139;-70
2023/06/11 02:51:35;;;;;;;8.40;6.50;;;;;;;18.17;92.41;100528.23;109239;1245;74289;-69
2023/06/11 02:54:04;;;;;;;12.90;6.90;;;;;;;18.16;93.16;100532.05;109451;1245;63327;-70
2023/06/11 02:56:33;;;;;;;9.00;6.90;;;;;;;18.12;93.87;100535.30;109471;1243;61782;-70
2023/06/11 02:59:02;;;;;;;9.90;7.10;;;;;;;18.13;93.42;100536.78;109585;1243;73325;-69
2023/06/11 03:01:31;;;;;;;12.70;6.80;;;;;;;18.17;92.57;100538.31;109536;1241;72843;-71
2023/06/11 03:04:00;;;;;;;10.60;5.60;;;;;;;18.18;92.78;100538.25;109699;1241;70384;-69
2023/06/11 03:06:31;;;;;;;9.50;6.60;;;;;;;18.17;93.39;100540.56;109648;1245;62804;-70
2023/06/11 03:09:00;;;;;;;10.20;6.60;;;;;;;18.17;92.27;100536.86;109636;1245;57200;-70
2023/06/11 03:11:29;;;;;;;11.40;7.00;;;;;;;18.20;92.39;100535.63;109672;1245;57225;-70
2023/06/11 03:13:58;;;;;;;10.10;6.60;;;;;;;18.24;92.68;100539.83;109718;1245;62197;-70
2023/06/11 03:16:27;;;;;;;10.80;6.80;;;;;;;18.25;92.53;100539.07;109751;1245;60878;-70
2023/06/11 03:18:56;;;;;;;8.20;6.90;;;;;;;18.26;92.44;100539.77;109742;1245;59240;-70
2023/06/11 03:21:25;;;;;;;9.00;7.10;;;;;;;18.26;92.97;100545.55;109663;1245;62458;-70
2023/06/11 03:23:54;;;;;;;9.00;6.80;;;;;;;18.29;92.21;100545.98;109669;1245;61145;-70
2023/06/11 03:26:24;;;;;;;10.10;7.20;;;;;;;18.26;92.66;100550.94;109616;1241;61714;-70
2023/06/11 03:28:53;;;;;;;11.50;6.70;;;;;;;18.31;92.05;100552.86;109753;1242;62749;-69
2023/06/11 03:31:23;;;;;;;8.00;6.40;;;;;;;18.34;91.88;100558.05;109719;1241;70335;-70
2023/06/11 03:33:52;;;;;;;9.90;7.20;;;;;;;18.34;91.75;100557.13;109585;1245;60078;-70
2023/06/11 03:36:21;;;;;;;8.80;7.30;;;;;;;18.39;91.53;100559.41;109494;1245;63755;-71
2023/06/11 03:38:51;;;;;;;8.80;6.30;;;;;;;18.42;91.47;100560.70;109478;1244;62085;-71
2023/06/11 03:41:20;;;;;;;7.70;6.70;;;;;;;18.49;91.62;100561.48;109516;1244;61748;-70
2023/06/11 03:43:49;;;;;;;9.60;6.70;;;;;;;18.48;91.30;100563.30;109496;1246;63706;-70
2023/06/11 03:46:19;;;;;;;10.80;7.30;;;;;;;18.50;91.53;100566.61;109538;1244;72198;-70
2023/06/11 03:48:49;;;;;;;9.70;7.20;;;;;;;18.52;91.60;100566.41;109641;1242;70773;-71
2023/06/11 03:51:18;;;;;;;11.10;7.70;;;;;;;18.56;91.16;100569.02;109415;1244;74212;-70
2023/06/11 03:53:47;;;;;;;11.20;6.80;;;;;;;18.58;91.02;100572.66;109522;1247;62916;-70
2023/06/11 03:56:16;;;;;;;10.20;7.10;;;;;;;18.58;91.07;100569.66;109547;1245;57469;-71
2023/06/11 03:58:45;;;;;;;9.90;7.40;;;;;;;18.54;91.72;100576.33;109532;1245;62942;-72
2023/06/11 04:01:14;;;;;;;8.50;7.00;;;;;;;18.58;91.36;100579.41;109565;1245;61603;-69
2023/06/11 04:03:43;;;;;;;9.20;6.90;;;;;;;18.62;91.03;100580.33;109477;1248;59985;-70
2023/06/11 04:06:15;;;;;;;8.40;7.40;;;;;;;18.70;90.49;100576.64;109420;1247;62554;-70
2023/06/11 04:08:44;;;;;;;8.80;7.00;;;;;;;18.70;90.53;100581.30;109474;1248;57080;-70
2023/06/11 04:11:13;;;;;;;11.50;7.10;;;;;;;18.71;90.28;100585.73;109487;1244;57208;-70
2023/06/11 04:13:42;;;;;;;9.60;7.20;;;;;;;18.78;89.59;100586.73;109610;1244;72165;-70
2023/06/11 04:16:10;;;;;;;8.30;6.50;;;;;;;18.83;89.23;100586.27;109483;1243;72882;-70
2023/06/11 04:18:39;;;;;;;8.80;6.70;;;;;;;18.86;89.21;100581.98;109565;1243;71459;-69
2023/06/11 04:21:08;;;;;;;9.20;6.90;;;;;;;18.94;88.60;100582.30;109460;1246;63986;-69
2023/06/11 04:23:38;;;;;;;10.80;6.80;;;;;;;18.94;88.64;100583.60;109456;1245;57708;-69
2023/06/11 04:26:10;;;;;;;8.60;6.50;;;;;;;19.04;87.55;100583.05;109584;1244;61834;-69
2023/06/11 04:28:45;;;;;;;8.40;6.60;;;;;;;19.00;87.51;100582.37;109533;1246;73928;-69
2023/06/11 04:31:14;;;;;;;7.40;6.60;;;;;;;19.02;87.07;100583.96;109529;1246;62172;-69
2023/06/11 04:33:45;;;;;;;8.60;6.70;;;;;;;19.02;86.56;100587.09;109556;1245;60621;-70
2023/06/11 04:36:15;;;;;;;8.30;6.50;;;;;;;19.08;86.05;100585.98;109430;1246;72554;-70
2023/06/11 04:38:44;;;;;;;9.00;6.20;;;;;;;19.00;86.08;100592.25;109496;1245;57678;-70
2023/06/11 04:41:16;;;;;;;7.40;6.40;;;;;;;19.05;85.64;100592.45;109637;1244;60496;-69
2023/06/11 04:43:49;;;;;;;;;;;;;;;19.09;84.99;100592.17;109688;1245;73978;-70
2023/06/11 04:46:18;;;;;;;10.20;6.70;;;;;;;19.02;85.69;100592.89;109539;1244;71604;-70
2023/06/11 04:48:50;;;;;;;10.30;6.50;;;;;;;19.06;85.40;100592.96;109485;1245;60411;-69
2023/06/11 04:51:20;;;;;;;10.70;6.70;;;;;;;19.21;84.26;100590.86;109561;1245;73919;-69
2023/06/11 04:53:52;;;;;;;8.00;6.70;;;;;;;19.22;83.89;100594.86;109439;1247;57588;-70
2023/06/11 04:56:21;;;;;;;8.10;6.10;;;;;;;19.17;84.33;100595.52;109546;1245;57697;-70
2023/06/11 04:58:50;;;;;;;7.80;6.00;;;;;;;19.23;83.89;100596.25;109509;1245;74078;-71
2023/06/11 05:01:20;;;;;;;9.70;6.50;;;;;;;19.28;83.25;100597.27;109526;1244;62101;-70
2023/06/11 05:03:49;;;;;;;7.90;6.30;;;;;;;19.29;83.17;100596.79;109526;1244;68025;-71
2023/06/11 05:06:21;;;;;;;8.70;6.40;;;;;;;19.29;82.79;100600.33;109514;1244;63359;-72
2023/06/11 05:08:52;;;;;;;10.50;6.30;;;;;;;19.28;82.71;100599.94;109614;1245;57725;-70
2023/06/11 05:11:21;;;;;;;8.60;6.10;;;;;;;19.22;82.87;100593.23;109648;1245;57717;-70
2023/06/11 05:13:51;;;;;;;6.50;5.80;;;;;;;19.24;82.66;100595.45;109365;1244;62219;-70
2023/06/11 05:16:21;;;;;;;7.50;6.20;;;;;;;19.33;82.41;100603.27;109548;1245;71439;-71
2023/06/11 05:18:51;;;;;;;8.80;6.10;;;;;;;19.24;82.81;100600.15;109619;1244;71123;-70
2023/06/11 05:21:19;;;;;;;8.10;6.40;;;;;;;19.30;82.57;100604.52;109487;1244;74197;-70
2023/06/11 05:23:50;;;;;;;7.70;5.80;;;;;;;19.32;82.54;100602.35;109483;1245;57089;-70
2023/06/11 05:26:31;;;;;;;8.20;5.70;;;;;;;19.29;82.71;100601.77;109603;1243;57591;-70
2023/06/11 05:29:05;;;;;;;9.30;6.20;;;;;;;19.22;82.81;100592.52;109402;1243;63864;-70
2023/06/11 05:31:35;;;;;;;7.50;6.00;;;;;;;19.29;82.27;100589.77;109457;1243;62846;-70
2023/06/11 05:34:06;;;;;;;6.70;5.50;;;;;;;19.33;82.25;100596.35;109638;1242;71002;-69
2023/06/11 05:36:35;;;;;;;7.00;6.00;;;;;;;19.29;82.40;100597.89;109579;1241;74307;-70
2023/06/11 05:39:04;;;;;;;9.50;5.80;;;;;;;19.41;81.49;100596.79;109681;1244;63235;-70
2023/06/11 05:41:33;;;;;;;11.00;6.10;;;;;;;19.43;81.15;100592.98;109581;1241;61585;-70
2023/06/11 05:44:03;;;;;;;7.90;6.50;;;;;;;19.36;81.60;100594.52;109664;1241;74627;-70
2023/06/11 05:46:32;;;;;;;7.50;5.30;;;;;;;19.39;81.45;100589.55;109594;1241;62035;-71
2023/06/11 05:49:02;;;;;;;8.90;5.90;;;;;;;19.37;81.55;100591.34;109625;1241;60006;-70
2023/06/11 05:51:31;;;;;;;7.10;5.80;;;;;;;19.45;81.13;100592.73;109336;1241;73860;-69
2023/06/11 05:54:01;;;;;;;8.20;5.90;;;;;;;19.46;81.57;100595.61;109594;1241;57434;-70
2023/06/11 05:56:31;;;;;;;9.00;6.10;;;;;;;19.42;81.98;100594.51;109556;1241;60436;-70
2023/06/11 05:58:59;;;;;;;10.50;6.10;;;;;;;19.58;80.92;100593.63;109441;1242;72336;-70
2023/06/11 06:01:32;;;;;;;8.90;6.20;;;;;;;19.59;80.83;100591.77;109477;1245;71895;-72
2023/06/11 06:04:02;;;;;;;8.90;6.20;;;;;;;19.51;81.29;100593.54;109490;1241;59412;-74
2023/06/11 06:06:33;;;;;;;7.30;6.30;;;;;;;19.54;81.05;100590.86;109258;1241;62828;-72
2023/06/11 06:09:02;;;;;;;8.40;5.90;;;;;;;19.60;80.72;100591.60;109467;1242;57714;-72
2023/06/11 06:11:31;;;;;;;8.50;5.80;;;;;;;19.60;80.53;100592.14;109416;1244;61937;-70
2023/06/11 06:14:01;;;;;;;10.70;6.20;;;;;;;19.64;80.27;100592.09;109338;1241;72535;-71
2023/06/11 06:16:31;;;;;;;9.10;5.80;;;;;;;19.68;80.17;100591.31;109426;1241;72008;-71
2023/06/11 06:19:01;;;;;;;7.40;5.80;;;;;;;19.74;80.52;100595.21;109468;1241;61719;-74
2023/06/11 06:21:30;;;;;;;7.40;5.40;;;;;;;19.94;79.51;100591.67;109569;1241;63061;-68
2023/06/11 06:23:59;;;;;;;7.60;5.70;;;;;;;20.00;78.91;100592.52;109608;1241;57428;-77
2023/06/11 06:26:29;;;;;;;8.10;6.20;;;;;;;20.09;78.70;100592.29;109607;1241;61229;-70
2023/06/11 06:28:58;;;;;;;6.30;5.50;;;;;;;20.09;78.88;100595.63;109626;1244;72185;-70
2023/06/11 06:31:28;;;;;;;6.70;5.50;;;;;;;20.30;77.91;100594.05;109418;1241;73232;-70
2023/06/11 06:33:57;;;;;;;7.90;5.90;;;;;;;20.39;77.44;100590.17;109422;1241;68961;-70
2023/06/11 06:36:26;;;;;;;6.20;5.30;;;;;;;20.52;77.24;100594.05;109548;1241;63759;-70
2023/06/11 06:38:55;;;;;;;8.00;5.80;;;;;;;20.72;76.58;100592.96;109703;1241;57295;-80
2023/06/11 06:41:24;;;;;;;8.30;6.10;;;;;;;20.94;75.73;100589.67;109590;1241;57699;-71
2023/06/11 06:43:53;;;;;;;6.80;5.20;;;;;;;21.20;74.86;100588.11;109484;1242;63450;-70
2023/06/11 08:02:56;;;;;;;10.40;8.50;;;;;;;22.60;67.63;100595.73;104398;1283;600914;-71
2023/06/11 08:05:26;;;;;;;12.30;7.80;;;;;;;22.75;66.99;100597.73;107026;1251;59124;-68
2023/06/11 08:07:55;;;;;;;9.20;8.10;;;;;;;22.92;66.18;100594.36;107071;1250;58991;-69
2023/06/11 08:10:25;;;;;;;11.70;8.30;;;;;;;23.10;65.90;100591.75;107782;1251;62282;-69
2023/06/11 08:12:55;;;;;;;9.70;7.20;;;;;;;23.16;65.41;100592.15;108821;1251;60970;-77
2023/06/11 08:15:24;;;;;;;8.60;7.50;;;;;;;23.57;64.41;100584.75;106686;1247;243699;-70
2023/06/11 08:17:53;;;;;;;7.40;6.50;;;;;;;23.86;63.07;100584.02;107083;1247;62848;-70
2023/06/11 08:20:22;;;;;;;7.80;6.80;;;;;;;23.97;62.57;100579.16;107092;1247;59149;-71
2023/06/11 08:22:51;;;;;;;8.00;7.20;;;;;;;24.10;62.81;100582.77;107178;1252;60423;-71
2023/06/11 08:25:20;;;;;;;7.40;6.70;;;;;;;24.14;61.87;100583.58;107161;1244;72422;-70
2023/06/11 08:27:50;;;;;;;8.30;6.90;;;;;;;24.03;61.46;100586.55;107158;1243;72622;-71
2023/06/11 08:30:20;;;;;;;8.70;7.30;;;;;;;23.82;61.73;100586.33;107389;1241;70971;-73
2023/06/11 08:32:49;;;;;;;7.70;6.50;;;;;;;23.79;62.57;100588.29;107371;1246;75124;-69
2023/06/11 08:35:18;;;;;;;8.20;7.40;;;;;;;24.17;61.11;100585.23;107208;1244;60860;-68
2023/06/11 08:37:47;;;;;;;8.60;7.20;;;;;;;24.16;60.75;100583.21;107151;1244;61810;-69
2023/06/11 08:40:16;;;;;;;8.40;7.60;;;;;;;24.08;60.67;100585.05;108677;1244;72655;-71
2023/06/11 08:42:46;;;;;;;9.40;7.60;;;;;;;23.96;60.99;100580.50;107200;1244;61230;-72
2023/06/11 08:45:16;;;;;;;8.40;7.60;;;;;;;24.08;61.07;100578.11;107108;1248;68693;-74
2023/06/11 08:47:52;;;;;;;8.50;7.60;;;;;;;24.17;60.74;100580.17;107246;1245;63645;-71
2023/06/11 08:50:25;;;;;;;8.80;7.90;;;;;;;24.02;60.14;100580.64;107044;1245;59212;-73
2023/06/11 08:52:54;;;;;;;9.10;7.90;;;;;;;24.03;59.94;100581.59;107139;1242;61239;-78
2023/06/11 08:55:22;;;;;;;8.80;7.70;;;;;;;23.86;61.09;100580.32;106848;1246;73193;-72
2023/06/11 08:57:52;;;;;;;9.10;7.50;;;;;;;23.91;60.66;100575.58;107216;1244;72287;-74
2023/06/11 09:00:21;;;;;;;12.50;7.60;;;;;;;23.86;61.25;100571.61;106927;1244;71037;-76
2023/06/11 09:02:51;;;;;;;8.60;6.80;;;;;;;23.99;61.17;100568.31;107148;1243;75407;-73
2023/06/11 09:05:21;;;;;;;8.10;7.10;;;;;;;24.31;60.02;100569.13;106993;1247;60746;-71
2023/06/11 09:07:53;;;;;;;10.30;7.30;;;;;;;24.31;59.75;100567.29;106771;1244;59027;-84
2023/06/11 09:10:26;;;;;;;8.50;6.60;;;;;;;24.32;59.61;100575.24;107042;1247;72827;-72
2023/06/11 09:12:55;;;;;;;9.80;7.40;;;;;;;24.26;59.66;100574.95;107321;1243;61214;-76
2023/06/11 09:15:25;;;;;;;8.70;6.90;;;;;;;24.37;59.06;100575.30;107305;1242;60044;-70
2023/06/11 09:17:54;;;;;;;9.90;7.40;;;;;;;24.20;59.68;100571.48;107271;1244;63262;-73
2023/06/11 09:20:24;;;;;;;9.20;7.20;;;;;;;24.17;59.88;100566.10;107300;1248;58958;-71
2023/06/11 09:22:54;;;;;;;8.10;6.80;;;;;;;24.39;59.54;100570.59;107094;1247;61256;-75
2023/06/11 09:25:30;;;;;;;11.90;7.40;;;;;;;24.43;59.10;100571.45;107258;1243;72419;-70
2023/06/11 09:28:06;;;;;;;7.50;6.70;;;;;;;24.40;59.15;100575.07;107285;1243;72253;-73
2023/06/11 09:30:35;;;;;;;10.70;7.40;;;;;;;24.29;59.31;100574.60;107250;1243;71657;-67
2023/06/11 09:33:05;;;;;;;7.90;7.10;;;;;;;24.01;60.10;100575.06;107345;1244;63417;-70
2023/06/11 09:35:44;;;;;;;11.30;7.20;;;;;;;23.89;60.64;100567.27;107017;1245;59097;-64
2023/06/11 09:38:19;;;;;;;7.40;6.60;;;;;;;23.84;61.13;100569.80;106911;1248;59088;-64
2023/06/11 09:40:55;;;;;;;9.00;7.10;;;;;;;23.94;61.19;100573.15;107004;1246;62126;-68
2023/06/11 09:43:25;;;;;;;8.90;7.00;;;;;;;24.03;60.67;100568.75;106972;1243;61581;-67
2023/06/11 09:45:55;;;;;;;8.40;7.00;;;;;;;24.15;60.47;100572.79;107028;1243;70503;-65
2023/06/11 09:48:25;;;;;;;12.30;7.50;;;;;;;24.06;61.10;100575.36;106818;1248;63514;-66
2023/06/11 09:50:54;;;;;;;9.00;7.10;;;;;;;23.95;61.37;100569.21;106793;1245;57957;-68
2023/06/11 09:53:24;;;;;;;11.70;7.40;;;;;;;24.03;60.97;100567.14;106817;1250;60557;-65
2023/06/11 09:55:53;;;;;;;10.20;7.30;;;;;;;23.97;61.23;100566.92;106969;1256;73428;-68
2023/06/11 09:58:40;;;;;;;8.60;7.70;;;;;;;23.86;61.31;100569.98;107221;1248;72874;-70
2023/06/11 10:01:11;;;;;;;8.10;6.80;;;;;;;23.72;62.08;100560.94;107236;1243;61004;-68
2023/06/11 10:03:40;;;;;;;11.20;7.90;;;;;;;23.82;61.96;100563.11;106979;1245;63248;-69
2023/06/11 10:06:22;;;;;;;8.80;7.30;;;;;;;24.11;61.76;100560.30;107117;1245;61705;-66
2023/06/11 10:08:53;;;;;;;9.10;7.80;;;;;;;24.42;60.76;100551.73;107061;1245;58877;-66
2023/06/11 10:11:23;;;;;;;8.50;7.20;;;;;;;24.68;59.99;100559.77;107210;1243;72219;-67
2023/06/11 10:14:01;;;;;;;8.10;7.10;;;;;;;24.77;59.05;100555.21;107186;1243;72350;-69
2023/06/11 10:16:32;;;;;;;8.00;7.20;;;;;;;24.85;58.47;100559.02;107075;1248;61518;-66
2023/06/11 10:19:09;;;;;;;9.50;7.20;;;;;;;24.82;59.10;100553.73;107154;1244;64771;-66
2023/06/11 10:21:49;;;;;;;7.40;6.70;;;;;;;24.99;58.23;100548.23;107083;1245;59106;-65
2023/06/11 10:24:29;;;;;;;11.00;7.20;;;;;;;24.82;58.66;100550.93;107097;1254;60387;-69
2023/06/11 10:27:14;;;;;;;10.00;7.50;;;;;;;24.81;58.98;100552.34;106871;1250;61306;-69
2023/06/11 10:29:48;;;;;;;10.10;7.70;;;;;;;24.83;58.36;100555.34;107149;1246;60766;-72
2023/06/11 10:32:22;;;;;;;8.50;6.80;;;;;;;24.65;58.85;100551.81;107083;1247;59990;-68
2023/06/11 10:35:00;;;;;;;9.50;6.50;;;;;;;24.69;58.49;100551.41;107026;1246;71835;-69
2023/06/11 10:37:33;;;;;;;8.80;7.30;;;;;;;24.48;59.39;100551.11;107249;1246;61430;-71
2023/06/11 10:40:07;;;;;;;9.00;7.50;;;;;;;24.57;58.78;100545.42;107257;1248;60929;-70
2023/06/11 10:42:39;;;;;;;7.50;6.70;;;;;;;24.41;59.28;100546.48;107250;1243;61969;-69
2023/06/11 10:45:15;;;;;;;11.40;7.50;;;;;;;24.37;59.44;100542.38;107186;1251;63311;-72
2023/06/11 10:47:50;;;;;;;9.90;7.40;;;;;;;24.27;60.21;100542.89;107147;1244;70391;-69
2023/06/11 10:50:31;;;;;;;8.20;7.40;;;;;;;24.42;59.90;100538.76;107094;1246;62866;-69
2023/06/11 10:53:08;;;;;;;11.90;7.60;;;;;;;24.41;59.90;100544.30;107133;1244;62313;-70
2023/06/11 10:55:43;;;;;;;10.10;9.00;;;;;;;24.46;59.25;100541.76;107279;1245;62433;-71
2023/06/11 10:58:23;;;;;;;9.30;8.20;;;;;;;24.42;59.42;100543.39;107202;1244;62478;-68
2023/06/11 11:00:53;;;;;;;8.70;7.80;;;;;;;24.54;58.83;100544.22;107210;1243;62639;-68
2023/06/11 11:03:23;;;;;;;9.20;8.20;;;;;;;24.77;58.35;100545.88;107145;1256;69682;-65
2023/06/11 11:05:53;;;;;;;9.50;8.00;;;;;;;24.80;57.88;100541.02;107034;1247;72455;-65
2023/06/11 11:08:22;;;;;;;9.30;8.00;;;;;;;24.76;58.13;100538.98;107107;1243;58865;-67
2023/06/11 11:11:01;;;;;;;9.40;8.00;;;;;;;24.76;58.01;100542.47;107167;1256;61608;-68
2023/06/11 11:13:30;;;;;;;9.20;8.00;;;;;;;24.75;58.44;100539.27;107124;1247;63068;-67
2023/06/11 11:16:00;;;;;;;8.40;7.50;;;;;;;24.61;59.25;100545.08;107055;1247;60922;-66
2023/06/11 11:18:29;;;;;;;7.70;6.10;;;;;;;24.69;59.23;100546.68;107109;1247;60024;-65
2023/06/11 11:21:00;;;;;;;7.80;7.00;;;;;;;24.63;59.85;100541.46;107079;1251;63384;-69
2023/06/11 11:23:32;;;;;;;8.40;7.00;;;;;;;24.90;59.48;100533.98;107094;1245;57426;-68
2023/06/11 11:26:03;;;;;;;9.40;7.20;;;;;;;25.09;59.36;100533.66;107096;1245;57882;-68
2023/06/11 11:28:32;;;;;;;8.90;7.10;;;;;;;25.26;58.28;100541.52;107078;1256;71001;-69
2023/06/11 11:31:04;;;;;;;8.60;7.50;;;;;;;25.23;58.36;100538.95;107084;1246;72319;-70
2023/06/11 11:33:36;;;;;;;10.80;8.60;;;;;;;25.05;58.62;100541.52;107070;1247;60557;-68
2023/06/11 11:36:06;;;;;;;10.10;8.30;;;;;;;25.15;58.15;100540.25;107058;1248;62788;-70
2023/06/11 11:38:37;;;;;;;9.10;8.10;;;;;;;25.13;58.20;100534.86;107205;1247;57491;-73
2023/06/11 11:41:09;;;;;;;11.90;8.00;;;;;;;25.13;58.11;100535.23;107369;1244;58316;-73
2023/06/11 11:43:42;;;;;;;9.00;8.10;;;;;;;25.07;58.23;100536.63;107298;1256;62031;-71
2023/06/11 11:46:20;;;;;;;9.80;8.80;;;;;;;25.06;58.09;100532.73;107270;1246;63277;-74
2023/06/11 11:48:57;;;;;;;9.50;8.60;;;;;;;25.07;57.82;100528.90;107328;1250;69453;-78
2023/06/11 11:51:29;;;;;;;10.80;8.40;;;;;;;25.16;57.98;100528.02;107174;1247;62716;-72
2023/06/11 11:53:58;;;;;;;8.80;6.60;;;;;;;25.24;58.33;100528.85;107016;1244;57894;-77
2023/06/11 11:56:35;;;;;;;9.70;7.10;;;;;;;25.31;58.21;100521.31;107246;1246;58199;-71
2023/06/11 11:59:03;;;;;;;7.50;6.70;;;;;;;25.17;58.65;100517.45;106991;1244;73544;-70
2023/06/11 12:01:36;;;;;;;8.60;7.30;;;;;;;25.21;58.44;100518.71;107171;1254;72880;-70
2023/06/11 12:04:07;;;;;;;8.00;6.50;;;;;;;25.03;58.77;100518.79;107153;1256;68766;-69
2023/06/11 12:06:36;;;;;;;7.90;7.10;;;;;;;25.22;58.04;100513.45;107150;1246;72727;-71
2023/06/11 12:09:05;;;;;;;12.90;7.70;;;;;;;25.26;57.91;100518.77;107143;1247;57834;-70
2023/06/11 12:11:35;;;;;;;8.70;7.50;;;;;;;25.12;58.53;100514.29;107074;1244;58995;-71
2023/06/11 12:14:08;;;;;;;11.40;8.20;;;;;;;25.42;57.84;100509.24;107134;1252;61816;-71
2023/06/11 12:16:39;;;;;;;9.30;8.30;;;;;;;25.63;57.25;100512.61;107073;1248;61154;-71
2023/06/11 12:19:09;;;;;;;8.00;7.30;;;;;;;25.65;56.71;100518.65;107087;1243;61993;-70
2023/06/11 12:21:51;;;;;;;8.70;7.70;;;;;;;25.59;56.49;100513.02;107114;1245;74078;-70
2023/06/11 12:24:20;;;;;;;8.90;7.60;;;;;;;25.48;56.88;100520.50;107070;1246;59040;-70
2023/06/11 12:26:51;;;;;;;7.40;6.60;;;;;;;25.49;56.45;100521.11;107052;1244;59092;-70
2023/06/11 12:29:20;;;;;;;8.70;6.70;;;;;;;25.21;57.11;100515.21;106980;1248;62886;-70
2023/06/11 12:31:49;;;;;;;9.00;5.50;;;;;;;24.98;57.11;100523.45;106932;1247;61148;-71
2023/06/11 12:42:21;;;;;;;10.20;7.20;;;;;;;23.05;61.66;100540.64;104228;1274;601238;-71
2023/06/11 12:44:50;;;;;;;;;;;;;;;22.72;65.43;100539.48;106652;1249;59069;-68
2023/06/11 12:47:19;;;;;;;14.30;9.10;;;;;;;22.02;71.79;100540.81;106614;1248;59070;-70
2023/06/11 12:49:49;;;;;;;13.90;9.40;;;;;;;20.99;84.07;100534.85;106610;1251;62279;-71
2023/06/11 12:52:20;;;;;;;11.80;9.30;;;;;;;20.11;91.01;100530.36;106225;1257;72227;-71
2023/06/11 12:54:49;;;;;;;14.40;10.60;;;;;;;19.96;98.28;100522.23;106395;1251;354189;-71
2023/06/11 12:57:19;;;;;;;13.20;11.50;;;;;;;19.89;100.00;100523.70;106669;1248;75389;-69
2023/06/11 12:59:48;;;;;;;16.50;12.10;;;;;;;19.93;98.71;100518.09;107049;1249;57306;-69